Terminal Aerodrome Forecast
Issued by NWS

Home | Current Version | Previous Version | Text Only | Print | Product List | Glossary On
Versions: 1 2 3 4 5 6 7 8 9 10 11 12 13 14 15 16 17 18 19 20 21 22 23 24 25 26 27 28 29 30 31 32 33 34 35 36 37 38
000
FTUS41 KBGM 200852 AAA
TAFELM
TAF AMD
KELM 200852Z 2009/2106 03007KT 1/2SM SN OVC011
     FM201300 35014G25KT 3/4SM -SN BLSN OVC015
     FM201600 34016G28KT 2SM -SN BLSN OVC018
     FM201800 33016G31KT 4SM -SN BLSN OVC025
     FM202300 32014G24KT P6SM OVC035=

USA.gov is the U.S. government's official web portal to all federal, state and local government web resources and services.